TAF Text Data
IDs:
Format:
Raw Decoded Include METAR

Data at: 1345 UTC 14 Dec 2019

KDVN 141252Z AUTO 32011KT 10SM OVC011 M03/M05 A2982 RMK AO2 SLP103 T10281050


KMLI 141252Z 32012G17KT 10SM OVC013 M02/M05 A2980 RMK AO2 SLP098 T10171050

KMLI 141241Z 1413/1512 32011KT 6SM BR SCT007 OVC012
  FM141400 31013G19KT P6SM OVC012
  FM141600 32012KT P6SM BKN025
  FM141900 31011KT P6SM SCT030
  FM150300 30009KT P6SM BKN200